Time;durP1;ratioP1;P1;durP2;ratioP2;P2;SDS_P1;SDS_P2;PMS_P1;PMS_P2;Temp;Humidity;BMP_temperature;BMP_pressure;BME280_temperature;BME280_humidity;BME280_pressure;Samples;Min_cycle;Max_cycle;Signal;HPM_P1;HPM_P2
2022/03/14 00:00:43;;;;;;;6.03;5.27;;;11.80;99.90;;;;;;5054617;28;20429;-70
2022/03/14 00:03:11;;;;;;;4.80;4.40;;;11.80;99.90;;;;;;5054721;28;20409;-69
2022/03/14 00:05:37;;;;;;;5.03;4.30;;;11.80;99.90;;;;;;5054588;28;20174;-70
2022/03/14 00:08:03;;;;;;;6.07;4.90;;;11.90;99.90;;;;;;5054461;28;20965;-69
2022/03/14 00:10:29;;;;;;;6.20;5.20;;;11.90;99.90;;;;;;5052568;28;20198;-69
2022/03/14 00:12:58;;;;;;;5.30;4.60;;;11.90;99.90;;;;;;5054164;28;20415;-70
2022/03/14 00:15:29;;;;;;;5.67;5.17;;;11.90;99.90;;;;;;5054262;28;20180;-69
2022/03/14 00:17:56;;;;;;;6.57;5.07;;;11.90;99.90;;;;;;5054700;28;21133;-71
2022/03/14 00:20:22;;;;;;;5.50;5.00;;;11.90;99.90;;;;;;5053888;28;20432;-69
2022/03/14 00:22:48;;;;;;;5.67;5.10;;;12.00;99.90;;;;;;5053865;28;20417;-68
2022/03/14 00:25:14;;;;;;;4.77;4.37;;;11.90;99.90;;;;;;5053977;28;20685;-69
2022/03/14 00:27:40;;;;;;;5.40;4.90;;;11.80;99.90;;;;;;5054192;28;20606;-69
2022/03/14 00:30:11;;;;;;;6.00;5.50;;;11.80;99.90;;;;;;5054037;28;20495;-70
2022/03/14 00:32:37;;;;;;;4.93;4.43;;;11.70;99.90;;;;;;5054167;28;20195;-69
2022/03/14 00:35:04;;;;;;;6.43;4.70;;;11.80;99.90;;;;;;5052604;28;20527;-70
2022/03/14 00:37:30;;;;;;;4.93;4.43;;;11.80;99.90;;;;;;5053880;28;20499;-70
2022/03/14 00:39:56;;;;;;;5.47;4.90;;;11.80;99.90;;;;;;5054201;28;20511;-69
2022/03/14 00:42:22;;;;;;;5.17;4.67;;;11.80;99.90;;;;;;5052137;28;20939;-70
2022/03/14 00:44:48;;;;;;;6.07;5.53;;;11.80;99.90;;;;;;5053638;28;20170;-70
2022/03/14 00:47:16;;;;;;;5.73;5.23;;;11.80;99.90;;;;;;5053830;28;20745;-70
2022/03/14 00:49:42;;;;;;;5.50;5.00;;;11.80;99.90;;;;;;5053705;28;20450;-68
2022/03/14 00:52:07;;;;;;;5.73;5.17;;;11.80;99.90;;;;;;5053145;28;20441;-70
2022/03/14 00:54:34;;;;;;;6.00;5.40;;;11.80;99.90;;;;;;5053251;28;20814;-70
2022/03/14 00:56:59;;;;;;;5.63;5.13;;;11.80;99.90;;;;;;5053474;28;20178;-70
2022/03/14 00:59:25;;;;;;;6.10;5.10;;;11.70;99.90;;;;;;5051924;28;20409;-69
2022/03/14 01:01:51;;;;;;;5.73;4.77;;;11.60;99.90;;;;;;5053326;28;20689;-71
2022/03/14 01:04:17;;;;;;;4.97;4.47;;;11.60;99.90;;;;;;5053823;28;20757;-70
2022/03/14 01:06:42;;;;;;;5.00;4.50;;;11.70;99.90;;;;;;5053774;28;20409;-69
2022/03/14 01:09:11;;;;;;;5.53;5.03;;;11.70;99.90;;;;;;5053774;28;20174;-70
2022/03/14 01:11:39;;;;;;;4.40;4.00;;;11.80;99.90;;;;;;5052800;28;20691;-69
2022/03/14 01:14:05;;;;;;;5.10;4.63;;;11.70;99.90;;;;;;5051771;28;20413;-69
2022/03/14 01:16:31;;;;;;;6.27;5.23;;;11.70;99.90;;;;;;5053085;28;20496;-69
2022/03/14 01:18:57;;;;;;;4.47;4.07;;;11.60;99.90;;;;;;5052948;28;20496;-69
2022/03/14 01:21:23;;;;;;;4.20;3.70;;;11.60;99.90;;;;;;5053127;28;20278;-69
2022/03/14 01:23:49;;;;;;;4.63;4.23;;;11.60;99.90;;;;;;5051192;28;20313;-69
2022/03/14 01:26:14;;;;;;;5.10;4.60;;;11.60;99.90;;;;;;5052746;28;20484;-69
2022/03/14 01:28:40;;;;;;;5.70;4.47;;;11.50;99.90;;;;;;5053214;28;20174;-67
2022/03/14 01:31:05;;;;;;;4.90;4.50;;;11.50;99.90;;;;;;5052843;28;20197;-68
2022/03/14 01:33:31;;;;;;;5.33;4.37;;;11.50;99.90;;;;;;5052450;28;20257;-68
2022/03/14 01:35:57;;;;;;;5.27;4.63;;;11.40;99.90;;;;;;5052751;28;20170;-68
2022/03/14 01:38:22;;;;;;;4.40;4.00;;;11.50;99.90;;;;;;5053301;28;20517;-68
2022/03/14 01:40:48;;;;;;;4.40;4.00;;;11.60;99.90;;;;;;5052707;28;20619;-68
2022/03/14 01:43:14;;;;;;;4.07;3.77;;;11.60;99.90;;;;;;5052110;28;20170;-68
2022/03/14 01:45:39;;;;;;;5.93;4.23;;;11.80;99.90;;;;;;5052402;28;20257;-67
2022/03/14 01:48:06;;;;;;;4.70;4.20;;;11.80;99.90;;;;;;5052260;28;20448;-68
2022/03/14 01:50:33;;;;;;;4.30;3.90;;;11.90;99.90;;;;;;5050790;28;20206;-68
2022/03/14 01:52:59;;;;;;;6.13;3.70;;;11.90;99.90;;;;;;5051886;28;20407;-68
2022/03/14 01:55:24;;;;;;;4.20;3.80;;;11.90;99.90;;;;;;5051936;28;20436;-68
2022/03/14 01:57:50;;;;;;;4.30;3.87;;;12.00;99.90;;;;;;5052199;28;20224;-71
2022/03/14 02:00:16;;;;;;;6.70;4.63;;;12.00;99.90;;;;;;5052565;28;20185;-69
2022/03/14 02:02:42;;;;;;;4.83;4.43;;;12.00;99.90;;;;;;5051802;28;20941;-69
2022/03/14 02:05:10;;;;;;;3.83;3.53;;;12.00;99.90;;;;;;5052094;28;20173;-69
2022/03/14 02:07:36;;;;;;;5.07;4.40;;;12.10;99.90;;;;;;5051960;28;20416;-69
2022/03/14 02:10:02;;;;;;;4.60;4.30;;;12.10;99.90;;;;;;5051861;28;20459;-69
2022/03/14 02:12:27;;;;;;;5.20;4.70;;;12.10;99.90;;;;;;5051782;28;20213;-70
2022/03/14 02:14:53;;;;;;;4.57;4.17;;;12.10;99.90;;;;;;5051960;28;20909;-69
2022/03/14 02:17:21;;;;;;;4.53;4.07;;;12.10;99.90;;;;;;5052002;28;20171;-69
2022/03/14 02:19:47;;;;;;;4.90;4.43;;;12.10;99.90;;;;;;5051804;28;20174;-69
2022/03/14 02:22:14;;;;;;;5.47;4.73;;;12.10;99.90;;;;;;5051427;28;20444;-69
2022/03/14 02:24:44;;;;;;;5.80;5.30;;;12.10;99.90;;;;;;5051829;28;20554;-68
2022/03/14 02:27:11;;;;;;;5.00;4.50;;;12.10;99.90;;;;;;5051637;28;20490;-68
2022/03/14 02:29:37;;;;;;;5.70;4.40;;;12.00;99.90;;;;;;5052912;28;20823;-70
2022/03/14 02:32:03;;;;;;;4.27;3.90;;;12.00;99.90;;;;;;5051516;28;21028;-69
2022/03/14 02:34:29;;;;;;;6.47;5.03;;;12.00;99.90;;;;;;5051703;28;20499;-69
2022/03/14 02:36:54;;;;;;;6.60;5.10;;;11.90;99.90;;;;;;5051478;28;20487;-69
2022/03/14 02:39:20;;;;;;;4.77;4.27;;;11.90;99.90;;;;;;5051497;28;20174;-69
2022/03/14 02:41:45;;;;;;;5.60;5.07;;;11.90;99.90;;;;;;5051317;28;20216;-69
2022/03/14 02:44:11;;;;;;;5.23;4.73;;;11.90;99.90;;;;;;5051450;28;20193;-69
2022/03/14 02:46:38;;;;;;;5.13;4.50;;;11.80;99.90;;;;;;5051405;28;20662;-69
2022/03/14 02:49:05;;;;;;;5.30;4.83;;;11.80;99.90;;;;;;5051693;28;20202;-69
2022/03/14 02:51:31;;;;;;;5.60;4.83;;;11.80;99.90;;;;;;5051495;28;20432;-69
2022/03/14 02:53:57;;;;;;;5.10;4.60;;;11.80;99.90;;;;;;5051135;28;20532;-69
2022/03/14 02:56:23;;;;;;;5.60;5.00;;;11.80;99.90;;;;;;5051345;28;20433;-70
2022/03/14 02:58:51;;;;;;;6.10;5.50;;;11.70;99.90;;;;;;5051498;28;20181;-71
2022/03/14 03:01:20;;;;;;;5.60;5.10;;;11.70;99.90;;;;;;5050015;28;20435;-69
2022/03/14 03:03:48;;;;;;;5.90;5.13;;;11.60;99.90;;;;;;5050963;28;20415;-70
2022/03/14 03:06:15;;;;;;;5.60;4.60;;;11.60;99.90;;;;;;5053114;28;20397;-69
2022/03/14 03:08:44;;;;;;;5.10;4.70;;;11.60;99.90;;;;;;5055089;28;20483;-69
2022/03/14 03:11:11;;;;;;;5.37;4.80;;;11.60;99.90;;;;;;5077600;22;20488;-68
2022/03/14 03:13:38;;;;;;;4.60;4.20;;;11.60;99.90;;;;;;5059567;28;20500;-70
2022/03/14 03:16:04;;;;;;;5.77;5.27;;;11.50;99.90;;;;;;5060104;28;20397;-70
2022/03/14 03:18:29;;;;;;;7.10;5.90;;;11.50;99.90;;;;;;5060004;28;20389;-70
2022/03/14 03:20:55;;;;;;;5.60;4.87;;;11.50;99.90;;;;;;5060182;28;20756;-70
2022/03/14 03:23:20;;;;;;;8.43;5.20;;;11.50;99.90;;;;;;5059579;28;20174;-70
2022/03/14 03:25:46;;;;;;;6.27;5.67;;;11.50;99.90;;;;;;5060117;28;20181;-69
2022/03/14 03:28:11;;;;;;;6.77;6.10;;;11.40;99.90;;;;;;5059986;28;20567;-70
2022/03/14 03:30:37;;;;;;;5.97;5.10;;;11.40;99.90;;;;;;5059877;28;20206;-70
2022/03/14 03:33:02;;;;;;;8.67;7.03;;;11.40;99.90;;;;;;5059372;28;20202;-70
2022/03/14 03:35:28;;;;;;;6.40;5.80;;;11.40;99.90;;;;;;5060083;28;20170;-70
2022/03/14 03:37:53;;;;;;;7.13;6.43;;;11.40;99.90;;;;;;5059557;28;20197;-71
2022/03/14 03:40:19;;;;;;;6.77;6.07;;;11.40;99.90;;;;;;5059537;28;20220;-71
2022/03/14 03:42:44;;;;;;;6.63;5.90;;;11.30;99.90;;;;;;5059516;28;20199;-70
2022/03/14 03:45:10;;;;;;;6.70;6.10;;;11.40;99.90;;;;;;5059652;28;20235;-70
2022/03/14 03:47:36;;;;;;;6.27;5.63;;;11.30;99.90;;;;;;5060098;28;20540;-70
2022/03/14 03:50:02;;;;;;;6.07;5.30;;;11.30;99.90;;;;;;5060187;28;20542;-70
2022/03/14 03:52:27;;;;;;;6.50;5.90;;;11.20;99.90;;;;;;5058828;28;20186;-70
2022/03/14 03:54:53;;;;;;;6.00;5.40;;;11.20;99.90;;;;;;5059345;28;20206;-70
2022/03/14 03:57:18;;;;;;;7.03;5.20;;;11.20;99.90;;;;;;5059041;28;20220;-70
2022/03/14 03:59:44;;;;;;;5.87;5.17;;;11.20;99.90;;;;;;5059590;28;20181;-70
2022/03/14 04:02:09;;;;;;;5.47;4.97;;;11.10;99.90;;;;;;5060185;28;20206;-71
2022/03/14 04:04:35;;;;;;;4.67;4.20;;;11.10;99.90;;;;;;5059681;28;20591;-69
2022/03/14 04:07:02;;;;;;;4.63;3.90;;;11.10;99.90;;;;;;5042210;28;20181;-70
2022/03/14 04:09:27;;;;;;;4.37;3.97;;;11.10;99.90;;;;;;5059732;28;20456;-70
2022/03/14 04:11:53;;;;;;;4.60;4.20;;;11.10;99.90;;;;;;5059584;28;20539;-70
2022/03/14 04:14:20;;;;;;;5.77;3.47;;;11.10;99.90;;;;;;5059982;28;20261;-70
2022/03/14 04:16:46;;;;;;;5.90;4.33;;;11.10;99.90;;;;;;5059958;28;20174;-70
2022/03/14 04:19:11;;;;;;;4.10;3.70;;;11.10;99.90;;;;;;5059704;28;20459;-69
2022/03/14 04:21:39;;;;;;;4.70;4.03;;;11.10;99.90;;;;;;5060083;28;20569;-70
2022/03/14 04:24:05;;;;;;;5.93;4.10;;;11.00;99.90;;;;;;5060893;28;20158;-70
2022/03/14 04:26:31;;;;;;;4.27;3.80;;;11.00;99.90;;;;;;5060089;28;20504;-70
2022/03/14 04:28:56;;;;;;;3.90;3.50;;;11.00;99.90;;;;;;5060656;28;20455;-70
2022/03/14 04:31:22;;;;;;;4.20;3.67;;;11.00;99.90;;;;;;5043302;28;20390;-71
2022/03/14 04:33:47;;;;;;;3.07;2.77;;;11.10;99.90;;;;;;5061812;28;20689;-71
2022/03/14 04:36:14;;;;;;;3.87;3.47;;;11.00;99.90;;;;;;5054644;28;20179;-68
2022/03/14 04:38:39;;;;;;;3.70;2.90;;;11.10;99.90;;;;;;5078585;28;20229;-68
2022/03/14 04:41:05;;;;;;;5.40;3.43;;;11.00;99.90;;;;;;5078513;28;20436;-70
2022/03/14 04:43:31;;;;;;;3.30;3.00;;;11.00;99.90;;;;;;5078450;28;20170;-68
2022/03/14 04:45:56;;;;;;;3.40;3.20;;;11.00;99.90;;;;;;5079007;28;20230;-68
2022/03/14 04:48:23;;;;;;;3.33;3.03;;;11.00;99.90;;;;;;5058633;28;20432;-70
2022/03/14 04:50:50;;;;;;;3.10;2.90;;;11.00;99.90;;;;;;5058774;28;20218;-70
2022/03/14 04:53:16;;;;;;;4.20;3.20;;;11.00;99.90;;;;;;5040385;28;20918;-70
2022/03/14 04:55:42;;;;;;;3.93;3.50;;;10.90;99.90;;;;;;5058810;28;20412;-69
2022/03/14 04:58:12;;;;;;;4.50;3.70;;;10.70;99.90;;;;;;5040461;28;20440;-70
2022/03/14 05:00:37;;;;;;;4.50;4.10;;;10.70;99.90;;;;;;5057686;28;20500;-70
2022/03/14 05:03:04;;;;;;;4.77;4.27;;;10.60;99.90;;;;;;5057657;28;20515;-69
2022/03/14 05:05:30;;;;;;;6.20;5.23;;;10.60;99.90;;;;;;5058075;28;20166;-70
2022/03/14 05:07:56;;;;;;;5.67;5.17;;;10.40;99.90;;;;;;5057114;28;20423;-70
2022/03/14 05:10:22;;;;;;;5.80;5.00;;;10.40;99.90;;;;;;5057623;28;20547;-70
2022/03/14 05:12:48;;;;;;;5.90;5.40;;;10.40;99.90;;;;;;5057506;28;20209;-70
2022/03/14 05:15:17;;;;;;;6.17;5.57;;;10.40;99.90;;;;;;5057827;28;20405;-70
2022/03/14 05:17:47;;;;;;;6.23;5.63;;;10.40;99.90;;;;;;5057633;28;20173;-69
2022/03/14 05:20:13;;;;;;;6.27;5.67;;;10.40;99.90;;;;;;5058456;28;20420;-70
2022/03/14 05:22:48;;;;;;;6.40;5.80;;;10.40;99.90;;;;;;5058880;28;20425;-70
2022/03/14 05:25:14;;;;;;;5.90;5.30;;;10.40;99.90;;;;;;5058827;28;20410;-69
2022/03/14 05:27:40;;;;;;;6.33;5.73;;;10.30;99.90;;;;;;5059432;28;20401;-70
2022/03/14 05:30:09;;;;;;;6.90;6.23;;;10.40;99.90;;;;;;5058295;28;20535;-70
2022/03/14 05:32:36;;;;;;;6.40;5.80;;;10.30;99.90;;;;;;5058824;28;20190;-70
2022/03/14 05:35:02;;;;;;;6.53;6.03;;;10.30;99.90;;;;;;5059613;28;20451;-70
2022/03/14 05:37:28;;;;;;;6.97;6.30;;;10.30;99.90;;;;;;5058392;28;20409;-70
2022/03/14 05:39:53;;;;;;;8.03;7.30;;;10.30;99.90;;;;;;5071888;28;20431;-68
2022/03/14 05:42:19;;;;;;;8.07;7.30;;;10.30;99.90;;;;;;5076862;28;20190;-70
2022/03/14 05:44:45;;;;;;;7.70;7.00;;;10.30;99.90;;;;;;5077239;28;20264;-70
2022/03/14 05:47:11;;;;;;;8.50;7.70;;;10.30;99.90;;;;;;5077147;28;20165;-69
2022/03/14 05:49:37;;;;;;;10.20;8.43;;;10.30;99.90;;;;;;5078205;28;20531;-67
2022/03/14 05:52:03;;;;;;;10.23;9.03;;;10.20;99.90;;;;;;5057355;28;20460;-69
2022/03/14 05:54:29;;;;;;;10.73;9.63;;;10.20;99.90;;;;;;5057246;28;20170;-69
2022/03/14 05:56:54;;;;;;;9.47;8.47;;;10.30;99.90;;;;;;5057398;28;20420;-70
2022/03/14 05:59:20;;;;;;;9.97;8.97;;;10.30;99.90;;;;;;5056956;28;20178;-70
2022/03/14 06:01:50;;;;;;;9.90;8.40;;;10.30;99.90;;;;;;5056367;28;20243;-70
2022/03/14 06:04:16;;;;;;;9.37;8.37;;;10.20;99.90;;;;;;5056095;28;20495;-69
2022/03/14 06:06:42;;;;;;;9.67;8.47;;;10.20;99.90;;;;;;5056517;28;20412;-69
2022/03/14 06:09:08;;;;;;;12.80;9.50;;;10.20;99.90;;;;;;5056117;28;20397;-68
2022/03/14 06:11:34;;;;;;;10.17;9.07;;;10.20;99.90;;;;;;5037771;28;20479;-66
2022/03/14 06:13:59;;;;;;;9.57;8.57;;;10.10;99.90;;;;;;5056174;28;20428;-67
2022/03/14 06:16:25;;;;;;;10.30;9.30;;;10.10;99.90;;;;;;5055721;28;20768;-70
2022/03/14 06:18:51;;;;;;;10.27;8.13;;;10.10;99.90;;;;;;5056104;28;20615;-69
2022/03/14 06:21:17;;;;;;;10.37;9.27;;;10.10;99.90;;;;;;5056030;28;20267;-69
2022/03/14 06:23:43;;;;;;;9.77;8.77;;;10.20;99.90;;;;;;5056203;28;20170;-68
2022/03/14 06:26:08;;;;;;;10.27;9.17;;;10.20;99.90;;;;;;5039113;28;20432;-69
2022/03/14 06:28:34;;;;;;;10.50;8.97;;;10.20;99.90;;;;;;5056578;28;20213;-68
2022/03/14 06:30:59;;;;;;;9.83;8.03;;;10.20;99.90;;;;;;5056231;28;20202;-69
2022/03/14 06:33:25;;;;;;;9.47;8.57;;;10.30;99.90;;;;;;5055884;28;20173;-69
2022/03/14 06:35:50;;;;;;;10.20;9.20;;;10.30;99.90;;;;;;5050751;28;20186;-68
2022/03/14 06:38:16;;;;;;;8.53;7.63;;;10.20;99.90;;;;;;5058203;28;20670;-71
2022/03/14 06:40:42;;;;;;;7.53;6.80;;;10.20;99.90;;;;;;5054999;28;20206;-70
2022/03/14 06:43:10;;;;;;;8.50;7.70;;;10.20;99.90;;;;;;5064671;28;20662;-71
2022/03/14 06:45:38;;;;;;;8.20;7.40;;;10.30;99.90;;;;;;5046628;28;20520;-71
2022/03/14 06:48:05;;;;;;;7.83;6.97;;;10.30;99.90;;;;;;5046334;28;21143;-69
2022/03/14 06:50:31;;;;;;;9.57;6.90;;;10.20;99.90;;;;;;5063837;28;20524;-68
2022/03/14 06:52:58;;;;;;;7.43;5.80;;;10.20;99.90;;;;;;5054722;28;20468;-72
2022/03/14 06:55:24;;;;;;;9.33;6.50;;;10.20;99.90;;;;;;5055223;28;20443;-71
2022/03/14 06:57:50;;;;;;;7.63;6.23;;;10.30;99.90;;;;;;5072646;28;20448;-69
2022/03/14 07:00:16;;;;;;;6.10;5.17;;;10.20;99.90;;;;;;5054945;28;20197;-69
2022/03/14 07:02:42;;;;;;;6.73;6.13;;;10.10;99.90;;;;;;5072331;28;20452;-69
2022/03/14 07:05:18;;;;;;;5.07;4.67;;;10.10;99.90;;;;;;5073663;28;20423;-70
2022/03/14 07:07:45;;;;;;;6.57;5.77;;;10.20;99.90;;;;;;5073382;28;20209;-70
2022/03/14 07:10:12;;;;;;;6.77;6.13;;;10.20;99.90;;;;;;5072692;28;20521;-70
2022/03/14 07:12:44;;;;;;;6.17;5.57;;;10.20;99.90;;;;;;5054347;28;20468;-71
2022/03/14 07:15:11;;;;;;;7.73;6.30;;;10.10;99.90;;;;;;5055156;28;20511;-69
2022/03/14 07:17:36;;;;;;;6.30;5.70;;;10.00;99.90;;;;;;5054500;28;20502;-71
2022/03/14 07:20:02;;;;;;;7.43;6.63;;;10.00;99.90;;;;;;5054434;28;20437;-69
2022/03/14 07:22:29;;;;;;;9.17;6.03;;;10.10;99.90;;;;;;5067920;28;20217;-70
2022/03/14 07:24:55;;;;;;;6.47;5.10;;;10.10;99.90;;;;;;5074151;28;20194;-71
2022/03/14 07:27:20;;;;;;;7.03;5.97;;;10.10;99.90;;;;;;5074022;28;20422;-69
2022/03/14 07:29:46;;;;;;;6.07;5.47;;;10.20;99.90;;;;;;5073033;28;20578;-68
2022/03/14 07:32:11;;;;;;;6.27;5.70;;;10.30;99.90;;;;;;5073889;28;20716;-69
2022/03/14 07:34:37;;;;;;;6.23;5.63;;;10.40;99.90;;;;;;5073959;28;20682;-69
2022/03/14 07:37:03;;;;;;;6.20;5.60;;;10.40;99.90;;;;;;5073311;28;20190;-70
2022/03/14 07:39:29;;;;;;;5.73;4.77;;;10.30;99.90;;;;;;5056048;28;20206;-69
2022/03/14 07:41:55;;;;;;;10.50;6.10;;;10.40;99.90;;;;;;5074588;28;20319;-70
2022/03/14 07:44:21;;;;;;;6.57;5.10;;;10.40;99.90;;;;;;5072576;28;20454;-70
2022/03/14 07:46:47;;;;;;;6.90;5.37;;;10.40;99.90;;;;;;5056255;28;20433;-71
2022/03/14 07:49:14;;;;;;;6.00;5.17;;;10.40;99.90;;;;;;5056376;28;20453;-70
2022/03/14 07:51:40;;;;;;;7.03;5.57;;;10.30;99.90;;;;;;5064515;28;20211;-69
2022/03/14 07:54:05;;;;;;;7.20;6.37;;;10.50;99.90;;;;;;5079704;28;20510;-69
2022/03/14 07:56:31;;;;;;;5.33;4.83;;;10.50;99.90;;;;;;5080565;28;20486;-69
2022/03/14 07:58:57;;;;;;;7.97;5.13;;;10.50;99.90;;;;;;5079037;28;20213;-69
2022/03/14 08:01:22;;;;;;;9.90;5.20;;;10.50;99.90;;;;;;5087724;28;20318;-68
2022/03/14 08:03:48;;;;;;;7.40;4.83;;;10.50;99.90;;;;;;5092383;28;20242;-68
2022/03/14 08:06:23;;;;;;;8.43;5.40;;;10.60;99.90;;;;;;5090213;28;20247;-70
2022/03/14 08:08:50;;;;;;;5.30;4.80;;;10.60;99.90;;;;;;5089925;28;20234;-68
2022/03/14 08:11:17;;;;;;;8.20;6.10;;;10.50;99.90;;;;;;5082965;28;20550;-69
2022/03/14 08:13:43;;;;;;;5.73;5.13;;;10.60;99.90;;;;;;5062246;28;20447;-68
2022/03/14 08:16:09;;;;;;;7.80;5.40;;;10.60;99.90;;;;;;5080717;28;20423;-70
2022/03/14 08:18:34;;;;;;;7.93;5.10;;;10.60;99.90;;;;;;5080782;28;20208;-70
2022/03/14 08:21:00;;;;;;;7.20;5.07;;;10.60;99.90;;;;;;5056981;28;20472;-70
2022/03/14 08:23:25;;;;;;;6.93;5.27;;;10.80;99.90;;;;;;5040981;28;20198;-69
2022/03/14 08:25:51;;;;;;;8.07;4.77;;;10.70;99.90;;;;;;5059730;28;20210;-70
2022/03/14 08:28:17;;;;;;;6.30;4.70;;;10.80;99.90;;;;;;5060429;28;20198;-70
2022/03/14 08:30:44;;;;;;;6.50;4.87;;;10.80;99.90;;;;;;5057943;28;20853;-70
2022/03/14 08:33:10;;;;;;;8.87;5.17;;;10.90;99.90;;;;;;5057769;28;20204;-69
2022/03/14 08:35:36;;;;;;;8.07;5.00;;;10.90;99.90;;;;;;5056284;28;20555;-69
2022/03/14 08:38:03;;;;;;;7.10;5.17;;;11.00;99.90;;;;;;5056341;28;20201;-71
2022/03/14 08:40:28;;;;;;;6.20;5.00;;;11.00;99.90;;;;;;5056634;28;20210;-69
2022/03/14 08:42:56;;;;;;;9.20;5.70;;;11.10;99.90;;;;;;5056070;28;21251;-70
2022/03/14 08:45:23;;;;;;;6.27;5.30;;;11.00;99.90;;;;;;5068698;28;20213;-70
2022/03/14 08:47:49;;;;;;;7.73;5.00;;;11.10;99.90;;;;;;5076946;28;20790;-70
2022/03/14 08:50:15;;;;;;;6.67;4.83;;;11.10;99.90;;;;;;5076206;28;20695;-69
2022/03/14 08:52:40;;;;;;;6.80;5.80;;;11.10;99.90;;;;;;5059356;28;20209;-70
2022/03/14 08:55:07;;;;;;;9.80;6.07;;;11.10;99.90;;;;;;5037144;28;20459;-69
2022/03/14 08:57:32;;;;;;;6.87;5.57;;;11.20;99.90;;;;;;5055526;28;21105;-69
2022/03/14 08:59:58;;;;;;;7.70;5.60;;;11.20;99.90;;;;;;5054749;28;20432;-70
2022/03/14 09:02:24;;;;;;;6.73;5.40;;;11.20;99.90;;;;;;5054190;28;20682;-70
2022/03/14 09:04:49;;;;;;;7.33;5.80;;;11.20;99.90;;;;;;5052659;28;20474;-70
2022/03/14 09:07:26;;;;;;;5.80;5.20;;;11.10;99.90;;;;;;5054589;28;20213;-71
2022/03/14 09:09:52;;;;;;;18.37;6.87;;;11.10;99.90;;;;;;5059361;28;20197;-69
2022/03/14 09:12:19;;;;;;;7.50;6.13;;;11.10;99.90;;;;;;5071004;28;20471;-69
2022/03/14 09:14:46;;;;;;;8.63;6.47;;;11.10;99.90;;;;;;5086165;28;20538;-68
2022/03/14 09:17:12;;;;;;;7.17;6.47;;;11.10;99.90;;;;;;5074691;28;20447;-69
2022/03/14 09:19:38;;;;;;;8.57;7.10;;;11.20;99.90;;;;;;5083578;28;20466;-68
2022/03/14 09:22:04;;;;;;;10.00;5.70;;;11.10;99.90;;;;;;5073966;28;20481;-68
2022/03/14 09:24:30;;;;;;;8.00;5.03;;;11.20;99.90;;;;;;5073382;28;20411;-68
2022/03/14 09:26:59;;;;;;;11.60;5.87;;;11.30;99.90;;;;;;5073477;28;20769;-69
2022/03/14 09:29:25;;;;;;;9.43;5.93;;;11.30;99.90;;;;;;5073515;28;20181;-68
2022/03/14 09:31:51;;;;;;;9.27;5.67;;;11.40;99.90;;;;;;5073648;28;20419;-69
2022/03/14 09:34:16;;;;;;;11.20;7.37;;;11.50;99.90;;;;;;5072999;28;20170;-69
2022/03/14 09:36:42;;;;;;;8.63;7.10;;;11.50;99.90;;;;;;5072996;28;20457;-69
2022/03/14 09:39:13;;;;;;;6.60;6.00;;;11.60;99.90;;;;;;5073503;28;20268;-70
2022/03/14 09:41:40;;;;;;;8.60;6.07;;;11.60;99.90;;;;;;5072627;28;20255;-70
2022/03/14 09:44:09;;;;;;;12.47;7.10;;;11.60;99.90;;;;;;5073159;28;20407;-71
2022/03/14 09:46:37;;;;;;;9.07;6.80;;;11.40;99.90;;;;;;5053113;28;20448;-71
2022/03/14 09:49:03;;;;;;;7.83;6.47;;;11.40;99.90;;;;;;5053019;28;20428;-71
2022/03/14 09:51:29;;;;;;;9.80;7.40;;;11.30;99.90;;;;;;5052958;28;21044;-71
2022/03/14 09:53:55;;;;;;;7.90;6.50;;;11.30;99.90;;;;;;5053226;28;20424;-71
2022/03/14 09:56:21;;;;;;;8.20;6.70;;;11.30;99.90;;;;;;5053108;28;20224;-71
2022/03/14 09:58:47;;;;;;;7.60;6.60;;;11.40;99.90;;;;;;5052927;28;20756;-71
2022/03/14 10:01:13;;;;;;;8.90;6.20;;;11.50;99.90;;;;;;5052518;28;20471;-71
2022/03/14 10:03:39;;;;;;;10.60;6.47;;;11.50;99.90;;;;;;5053086;28;20409;-71
2022/03/14 10:06:05;;;;;;;7.53;6.10;;;11.40;99.90;;;;;;5052884;28;20478;-70
2022/03/14 10:08:32;;;;;;;6.00;5.40;;;11.50;99.90;;;;;;5052209;28;20210;-71
2022/03/14 10:10:57;;;;;;;10.30;5.47;;;11.50;99.90;;;;;;5051762;28;20758;-71
2022/03/14 10:13:24;;;;;;;7.53;5.37;;;11.50;99.90;;;;;;5051310;28;20504;-70
2022/03/14 10:15:50;;;;;;;7.50;4.77;;;11.30;99.90;;;;;;5051957;28;20593;-71
2022/03/14 10:18:18;;;;;;;7.80;5.13;;;11.40;99.90;;;;;;5051583;28;20421;-71
2022/03/14 10:21:05;;;;;;;6.83;5.00;;;11.40;99.90;;;;;;5051822;28;20171;-70
2022/03/14 10:23:43;;;;;;;7.17;5.30;;;11.50;99.90;;;;;;5051409;28;20416;-71
2022/03/14 10:26:16;;;;;;;10.93;5.70;;;11.50;99.90;;;;;;5051571;28;20917;-71
2022/03/14 10:28:42;;;;;;;6.43;4.37;;;11.50;99.90;;;;;;5051563;28;20913;-69
2022/03/14 10:31:07;;;;;;;9.37;6.27;;;11.50;99.90;;;;;;5051320;28;20470;-71
2022/03/14 10:33:34;;;;;;;6.43;5.37;;;11.50;99.90;;;;;;5052135;28;20182;-70
2022/03/14 10:36:00;;;;;;;9.23;6.60;;;11.50;99.90;;;;;;5052653;28;20182;-71
2022/03/14 10:38:27;;;;;;;6.10;5.50;;;11.50;99.90;;;;;;5052246;28;20456;-70
2022/03/14 10:40:56;;;;;;;6.33;5.70;;;11.50;99.90;;;;;;5051855;28;20416;-71
2022/03/14 10:43:28;;;;;;;6.53;5.90;;;11.50;99.90;;;;;;5051905;28;20424;-71
2022/03/14 10:45:56;;;;;;;5.93;5.33;;;11.60;99.90;;;;;;5067572;28;20494;-70
2022/03/14 10:48:32;;;;;;;8.80;6.07;;;11.60;99.90;;;;;;5072795;28;20585;-71
2022/03/14 10:51:03;;;;;;;7.60;5.67;;;11.70;99.90;;;;;;5073840;28;20451;-70
2022/03/14 10:53:28;;;;;;;8.43;5.97;;;11.70;99.90;;;;;;5073527;28;20424;-69
2022/03/14 10:55:58;;;;;;;5.73;5.20;;;11.80;99.90;;;;;;5074166;28;20418;-71
2022/03/14 10:58:29;;;;;;;7.83;5.50;;;11.90;99.90;;;;;;5073665;28;20662;-71
2022/03/14 11:00:57;;;;;;;10.50;5.87;;;12.00;99.90;;;;;;5072720;28;20816;-70
2022/03/14 11:03:37;;;;;;;7.57;5.60;;;12.00;99.90;;;;;;5073250;28;20427;-71
2022/03/14 11:06:10;;;;;;;6.10;5.50;;;12.30;99.90;;;;;;5072929;28;20417;-71
2022/03/14 11:08:43;;;;;;;9.23;6.30;;;12.40;99.90;;;;;;5071626;28;20473;-71
2022/03/14 11:11:17;;;;;;;6.60;5.57;;;12.30;99.90;;;;;;5071980;28;20479;-70
2022/03/14 11:13:45;;;;;;;9.80;6.53;;;12.30;99.90;;;;;;5072930;28;20412;-70
2022/03/14 11:16:29;;;;;;;8.10;6.00;;;12.20;99.90;;;;;;5054481;28;20473;-70
2022/03/14 11:18:55;;;;;;;8.93;6.47;;;12.20;99.90;;;;;;5072578;28;20419;-70
2022/03/14 11:21:27;;;;;;;6.23;5.63;;;12.30;99.90;;;;;;5072135;28;20443;-71
2022/03/14 11:23:54;;;;;;;8.30;6.87;;;12.40;99.90;;;;;;5053624;28;20419;-70
2022/03/14 11:26:22;;;;;;;7.10;6.40;;;12.50;99.90;;;;;;5072615;28;20503;-70
2022/03/14 11:28:49;;;;;;;11.13;7.33;;;12.70;99.90;;;;;;5076345;28;20420;-69
2022/03/14 11:31:18;;;;;;;8.57;6.57;;;12.80;99.90;;;;;;5075916;28;20883;-69
2022/03/14 11:33:44;;;;;;;9.37;6.87;;;13.00;99.90;;;;;;5075670;28;20857;-68
2022/03/14 11:36:10;;;;;;;7.67;5.90;;;13.20;99.90;;;;;;5075800;28;20912;-68
2022/03/14 11:38:36;;;;;;;6.30;5.70;;;13.20;99.90;;;;;;5057808;28;20418;-71
2022/03/14 11:41:02;;;;;;;8.60;6.50;;;13.30;99.90;;;;;;5075536;28;20982;-70
2022/03/14 11:43:28;;;;;;;10.13;5.87;;;13.30;99.90;;;;;;5075939;28;20538;-69
2022/03/14 11:45:55;;;;;;;6.63;5.90;;;13.30;99.90;;;;;;5059858;28;20519;-69
2022/03/14 11:48:21;;;;;;;6.77;6.17;;;13.40;99.90;;;;;;5055491;28;20419;-71
2022/03/14 11:50:53;;;;;;;13.60;5.60;;;13.20;99.90;;;;;;5055290;28;20444;-71
2022/03/14 11:53:24;;;;;;;7.60;5.33;;;13.20;99.90;;;;;;5037549;28;20424;-71
2022/03/14 11:56:05;;;;;;;7.77;5.20;;;13.20;99.90;;;;;;5055456;28;20400;-71
2022/03/14 11:58:40;;;;;;;8.27;5.30;;;13.10;99.90;;;;;;5055630;28;20488;-70
2022/03/14 12:01:17;;;;;;;6.83;5.03;;;13.00;99.90;;;;;;5055846;28;20458;-71
2022/03/14 12:03:50;;;;;;;8.70;5.77;;;12.90;99.90;;;;;;5029763;28;20478;-69
2022/03/14 12:06:17;;;;;;;8.70;5.83;;;13.00;99.90;;;;;;5064447;28;20932;-69
2022/03/14 12:08:46;;;;;;;7.00;5.37;;;12.90;99.90;;;;;;5068581;28;20463;-69
2022/03/14 12:11:37;;;;;;;6.33;5.73;;;12.80;99.90;;;;;;5050131;28;20507;-71
2022/03/14 12:14:04;;;;;;;6.97;6.23;;;12.90;99.90;;;;;;5069025;28;20509;-69
2022/03/14 12:16:37;;;;;;;6.27;5.23;;;12.90;99.90;;;;;;5066113;28;20447;-70
2022/03/14 12:19:31;;;;;;;7.90;5.70;;;13.00;99.90;;;;;;5057039;28;20475;-70
2022/03/14 12:21:59;;;;;;;6.17;5.50;;;13.10;99.90;;;;;;5056365;28;20437;-69
2022/03/14 12:24:33;;;;;;;10.77;5.67;;;13.20;99.90;;;;;;5053979;28;20452;-70
2022/03/14 12:27:00;;;;;;;5.20;4.70;;;13.20;99.90;;;;;;5053299;28;20454;-67
2022/03/14 12:29:36;;;;;;;5.70;5.20;;;13.00;99.90;;;;;;5054423;28;20440;-69
2022/03/14 12:32:24;;;;;;;5.00;4.50;;;12.80;99.90;;;;;;5053859;28;20436;-69
2022/03/14 12:35:07;;;;;;;6.33;4.67;;;12.70;99.90;;;;;;5055339;28;20471;-70
2022/03/14 12:38:05;;;;;;;7.03;4.70;;;12.50;99.90;;;;;;5055390;28;20474;-70
2022/03/14 12:40:33;;;;;;;6.43;5.43;;;12.40;99.90;;;;;;5026822;28;20428;-71
2022/03/14 12:43:07;;;;;;;7.30;5.63;;;12.50;99.90;;;;;;5055689;28;20424;-69
2022/03/14 12:45:41;;;;;;;6.20;5.10;;;12.40;99.90;;;;;;5068407;28;20491;-69